createdAt,value
2022-10-23T00:00:16.169Z,100806.78
2022-10-23T00:03:03.462Z,100807.28
2022-10-23T00:05:51.399Z,100802.13
2022-10-23T00:08:39.586Z,100791.50
2022-10-23T00:11:29.941Z,100792.59
2022-10-23T00:14:19.286Z,100797.97
2022-10-23T00:17:08.021Z,100792.00
2022-10-23T00:19:55.119Z,100797.00
2022-10-23T00:22:42.802Z,100807.16
2022-10-23T00:25:30.225Z,100792.63
2022-10-23T00:28:17.678Z,100797.16
2022-10-23T00:31:05.625Z,100804.28
2022-10-23T00:33:54.764Z,100795.34
2022-10-23T00:36:42.728Z,100808.31
2022-10-23T00:39:31.003Z,100801.75
2022-10-23T00:42:19.469Z,100787.00
2022-10-23T00:45:15.798Z,100788.59
2022-10-23T00:48:04.462Z,100776.00
2022-10-23T00:50:54.945Z,100779.66
2022-10-23T00:53:43.499Z,100784.03
2022-10-23T00:56:35.645Z,100780.69
2022-10-23T00:59:23.550Z,100773.25
2022-10-23T01:02:11.691Z,100783.59
2022-10-23T01:05:01.637Z,100792.38
2022-10-23T01:07:57.635Z,100790.13
2022-10-23T01:10:49.011Z,100777.16
2022-10-23T01:13:44.214Z,100777.53
2022-10-23T01:16:40.350Z,100769.34
2022-10-23T01:19:44.308Z,100771.81
2022-10-23T01:22:50.429Z,100767.41
2022-10-23T01:25:56.889Z,100769.06
2022-10-23T01:28:51.761Z,100763.66
2022-10-23T01:31:46.708Z,100764.03
2022-10-23T01:34:44.360Z,100771.63
2022-10-23T01:37:43.349Z,100769.63
2022-10-23T01:40:41.227Z,100770.84
2022-10-23T01:43:34.026Z,100775.88
2022-10-23T01:46:24.785Z,100766.63
2022-10-23T01:49:15.225Z,100760.50
2022-10-23T01:52:07.519Z,100748.78
2022-10-23T01:55:00.519Z,100761.59
2022-10-23T01:57:51.589Z,100764.94
2022-10-23T02:00:41.836Z,100771.56
2022-10-23T02:03:34.688Z,100763.72
2022-10-23T02:06:22.191Z,100764.56
2022-10-23T02:09:11.407Z,100754.41
2022-10-23T02:12:04.477Z,100766.50
2022-10-23T02:14:55.871Z,100760.91
2022-10-23T02:17:48.986Z,100747.31
2022-10-23T02:20:42.079Z,100747.38
2022-10-23T02:23:34.460Z,100745.53
2022-10-23T02:26:27.447Z,100744.13
2022-10-23T02:29:21.126Z,100736.16
2022-10-23T02:32:11.037Z,100732.56
2022-10-23T02:35:00.966Z,100732.66
2022-10-23T02:37:55.557Z,100717.72
2022-10-23T02:40:48.465Z,100720.72
2022-10-23T02:43:41.665Z,100724.88
2022-10-23T02:46:36.692Z,100723.72
2022-10-23T02:49:30.810Z,100724.09
2022-10-23T02:52:24.865Z,100717.16
2022-10-23T02:55:26.088Z,100712.84
2022-10-23T02:58:20.739Z,100709.56
2022-10-23T03:01:14.693Z,100706.38
2022-10-23T03:04:04.628Z,100703.31
2022-10-23T03:06:52.818Z,100695.84
2022-10-23T03:09:40.228Z,100697.47
2022-10-23T03:12:29.066Z,100694.72
2022-10-23T03:15:16.947Z,100685.38
2022-10-23T03:18:04.639Z,100682.81
2022-10-23T03:20:52.176Z,100686.13
2022-10-23T03:23:42.655Z,100686.06
2022-10-23T03:26:33.534Z,100678.88
2022-10-23T03:29:22.985Z,100681.59
2022-10-23T03:32:10.933Z,100685.63
2022-10-23T03:34:58.760Z,100682.81
2022-10-23T03:37:46.353Z,100680.81
2022-10-23T03:40:34.080Z,100689.41
2022-10-23T03:43:21.092Z,100692.84
2022-10-23T03:46:13.017Z,100685.94
2022-10-23T03:49:00.190Z,100690.19
2022-10-23T03:51:52.210Z,100688.09
2022-10-23T03:54:41.810Z,100697.00
2022-10-23T03:57:31.105Z,100693.69
2022-10-23T04:00:18.995Z,100694.53
2022-10-23T04:03:09.053Z,100691.06
2022-10-23T04:05:57.603Z,100676.53
2022-10-23T04:08:45.641Z,100669.50
2022-10-23T04:11:36.181Z,100662.53
2022-10-23T04:14:23.844Z,100665.88
2022-10-23T04:17:11.756Z,100660.94
2022-10-23T04:20:00.942Z,100655.91
2022-10-23T04:22:48.524Z,100661.06
2022-10-23T04:25:35.636Z,100654.69
2022-10-23T04:28:24.347Z,100663.16
2022-10-23T04:31:12.260Z,100658.34
2022-10-23T04:34:02.215Z,100664.94
2022-10-23T04:36:52.696Z,100665.00
2022-10-23T04:39:40.781Z,100661.72
2022-10-23T04:42:28.165Z,100662.94
2022-10-23T04:45:22.280Z,100657.81
2022-10-23T04:48:09.501Z,100655.75
2022-10-23T04:51:15.425Z,100636.97
2022-10-23T04:54:12.877Z,100643.06
2022-10-23T04:57:14.483Z,100640.78
2022-10-23T05:00:28.072Z,100644.91
2022-10-23T05:03:17.748Z,100641.34
2022-10-23T05:06:06.450Z,100642.81
2022-10-23T05:09:15.722Z,100644.91
2022-10-23T05:12:27.760Z,100646.50
2022-10-23T05:15:15.556Z,100649.44
2022-10-23T05:18:11.611Z,100641.91
2022-10-23T05:21:02.120Z,100644.38
2022-10-23T05:23:50.048Z,100644.81
2022-10-23T05:26:39.160Z,100641.13
2022-10-23T05:29:28.654Z,100637.59
2022-10-23T05:32:18.033Z,100630.03
2022-10-23T05:35:09.842Z,100625.78
2022-10-23T05:38:00.346Z,100623.28
2022-10-23T05:40:47.784Z,100620.16
2022-10-23T05:43:39.671Z,100617.81
2022-10-23T05:46:31.606Z,100610.53
2022-10-23T05:49:34.939Z,100608.88
2022-10-23T05:52:31.183Z,100605.53
2022-10-23T05:55:37.077Z,100598.47
2022-10-23T05:58:52.731Z,100598.25
2022-10-23T06:01:49.477Z,100599.31
2022-10-23T06:04:45.499Z,100600.16
2022-10-23T06:07:44.922Z,100593.81
2022-10-23T06:10:32.664Z,100587.81
2022-10-23T06:13:24.274Z,100584.94
2022-10-23T06:16:15.688Z,100583.06
2022-10-23T06:19:03.438Z,100582.22
2022-10-23T06:21:50.720Z,100582.44
2022-10-23T06:24:38.209Z,100580.13
2022-10-23T06:27:31.347Z,100567.06
2022-10-23T06:30:19.300Z,100564.97
2022-10-23T06:33:09.609Z,100572.38
2022-10-23T06:35:57.602Z,100576.78
2022-10-23T06:38:45.447Z,100575.53
2022-10-23T06:41:33.474Z,100568.03
2022-10-23T06:44:21.499Z,100568.03
2022-10-23T06:47:14.602Z,100572.84
2022-10-23T06:50:26.363Z,100571.00
2022-10-23T06:53:14.561Z,100567.63
2022-10-23T06:56:09.196Z,100570.59
2022-10-23T06:58:57.799Z,100570.59
2022-10-23T07:01:45.224Z,100571.84
2022-10-23T07:04:33.183Z,100573.56
2022-10-23T07:07:24.304Z,100570.41
2022-10-23T07:10:15.222Z,100571.06
2022-10-23T07:13:04.069Z,100586.47
2022-10-23T07:16:00.075Z,100577.66
2022-10-23T07:18:49.640Z,100576.84
2022-10-23T07:21:49.043Z,100587.13
2022-10-23T07:25:08.539Z,100577.03
2022-10-23T07:28:00.059Z,100590.13
2022-10-23T07:30:58.175Z,100580.88
2022-10-23T07:33:50.010Z,100577.06
2022-10-23T07:36:39.810Z,100571.41
2022-10-23T07:39:27.451Z,100571.44
2022-10-23T07:42:16.170Z,100567.03
2022-10-23T07:45:04.531Z,100563.88
2022-10-23T07:47:53.059Z,100563.91
2022-10-23T07:50:44.193Z,100554.00
2022-10-23T07:53:31.647Z,100550.00
2022-10-23T07:56:29.830Z,100544.13
2022-10-23T07:59:39.760Z,100557.38
2022-10-23T08:02:30.792Z,100563.09
2022-10-23T08:05:20.509Z,100570.44
2022-10-23T08:08:14.370Z,100566.66
2022-10-23T08:11:04.964Z,100561.81
2022-10-23T08:14:05.245Z,100556.53
2022-10-23T08:16:55.225Z,100550.06
2022-10-23T08:19:46.320Z,100554.03
2022-10-23T08:22:35.105Z,100558.25
2022-10-23T08:25:25.094Z,100544.69
2022-10-23T08:28:15.818Z,100536.25
2022-10-23T08:31:14.121Z,100529.50
2022-10-23T08:34:07.438Z,100529.09
2022-10-23T08:36:55.032Z,100521.28
2022-10-23T08:39:44.063Z,100527.13
2022-10-23T08:42:49.973Z,100530.72
2022-10-23T08:45:42.328Z,100524.34
2022-10-23T08:48:44.649Z,100534.66
2022-10-23T08:51:56.963Z,100529.41
2022-10-23T08:54:56.071Z,100536.53
2022-10-23T08:57:50.092Z,100535.50
2022-10-23T09:00:37.889Z,100517.34
2022-10-23T09:03:26.209Z,100520.91
2022-10-23T09:06:26.442Z,100516.88
2022-10-23T09:09:32.238Z,100514.53
2022-10-23T09:12:22.955Z,100513.88
2022-10-23T09:15:24.347Z,100524.91
2022-10-23T09:18:15.353Z,100521.28
2022-10-23T09:21:02.711Z,100510.94
2022-10-23T09:23:50.092Z,100511.38
2022-10-23T09:26:42.512Z,100504.91
2022-10-23T09:29:33.113Z,100500.44
2022-10-23T09:32:21.856Z,100496.03
2022-10-23T09:35:22.933Z,100490.13
2022-10-23T09:38:26.659Z,100482.47
2022-10-23T09:41:17.988Z,100486.03
2022-10-23T09:44:20.501Z,100480.03
2022-10-23T09:47:12.219Z,100469.59
2022-10-23T09:49:59.515Z,100481.56
2022-10-23T09:52:46.994Z,100480.41
2022-10-23T09:55:34.334Z,100466.56
2022-10-23T09:58:26.422Z,100459.41
2022-10-23T10:01:25.549Z,100460.94
2022-10-23T10:04:16.166Z,100453.44
2022-10-23T10:07:06.850Z,100447.97
2022-10-23T10:09:55.405Z,100453.59
2022-10-23T10:12:50.970Z,100449.50
2022-10-23T10:15:49.015Z,100457.22
2022-10-23T10:18:43.519Z,100448.13
2022-10-23T10:21:41.048Z,100442.03
2022-10-23T10:24:36.148Z,100444.03
2022-10-23T10:27:37.612Z,100436.22
2022-10-23T10:30:26.256Z,100439.75
2022-10-23T10:33:23.284Z,100432.28
2022-10-23T10:39:26.730Z,100432.28
2022-10-23T10:42:38.375Z,100427.00
2022-10-23T10:45:34.309Z,100423.44
2022-10-23T10:48:42.439Z,100416.06
2022-10-23T10:52:00.996Z,100418.34
2022-10-23T10:54:58.169Z,100411.63
2022-10-23T10:57:48.348Z,100405.75
2022-10-23T11:00:36.602Z,100393.00
2022-10-23T11:03:37.590Z,100406.44
2022-10-23T11:06:31.243Z,100387.72
2022-10-23T11:09:23.147Z,100376.44
2022-10-23T11:12:18.839Z,100377.22
2022-10-23T11:15:17.350Z,100380.66
2022-10-23T11:18:14.159Z,100373.59
2022-10-23T11:21:13.012Z,100369.69
2022-10-23T11:24:23.099Z,100364.44
2022-10-23T11:27:27.295Z,100360.59
2022-10-23T11:30:23.218Z,100349.09
2022-10-23T11:33:39.277Z,100342.53
2022-10-23T11:36:44.419Z,100338.81
2022-10-23T11:39:34.114Z,100330.22
2022-10-23T11:42:46.689Z,100319.31
2022-10-23T11:45:37.075Z,100327.81
2022-10-23T11:48:37.389Z,100316.56
2022-10-23T11:51:30.210Z,100306.72
2022-10-23T11:54:27.229Z,100310.44
2022-10-23T11:57:17.837Z,100296.44
2022-10-23T12:00:23.300Z,100298.25
2022-10-23T12:03:20.867Z,100290.19
2022-10-23T12:06:16.554Z,100288.47
2022-10-23T12:09:09.519Z,100286.66
2022-10-23T12:12:06.711Z,100282.94
2022-10-23T12:14:54.638Z,100286.06
2022-10-23T12:17:45.283Z,100274.19
2022-10-23T12:20:45.309Z,100284.63
2022-10-23T12:23:52.139Z,100275.03
2022-10-23T12:26:54.517Z,100258.28
2022-10-23T12:29:59.568Z,100256.78
2022-10-23T12:33:12.400Z,100244.47
2022-10-23T12:36:19.318Z,100237.13
2022-10-23T12:39:28.099Z,100229.84
2022-10-23T12:42:21.221Z,100217.97
2022-10-23T12:45:19.764Z,100222.91
2022-10-23T12:48:20.658Z,100210.69
2022-10-23T12:51:08.511Z,100189.28
2022-10-23T12:53:56.079Z,100182.13
2022-10-23T12:56:45.150Z,100201.75
2022-10-23T12:59:38.518Z,100194.06
2022-10-23T13:02:28.789Z,100193.25
2022-10-23T13:05:21.751Z,100192.41
2022-10-23T13:08:12.126Z,100197.69
2022-10-23T13:11:21.858Z,100202.47
2022-10-23T13:14:14.657Z,100200.78
2022-10-23T13:17:03.576Z,100190.88
2022-10-23T13:19:50.881Z,100194.34
2022-10-23T13:22:42.055Z,100182.84
2022-10-23T13:25:32.344Z,100173.25
2022-10-23T13:28:25.113Z,100171.59
2022-10-23T13:31:31.548Z,100161.28
2022-10-23T13:34:24.230Z,100157.91
2022-10-23T13:37:27.920Z,100142.09
2022-10-23T13:40:25.056Z,100137.06
2022-10-23T13:43:18.952Z,100128.44
2022-10-23T13:48:59.070Z,100125.66
2022-10-23T13:51:51.267Z,100116.69
2022-10-23T13:54:38.488Z,100118.13
2022-10-23T13:57:27.618Z,100109.31
2022-10-23T14:00:16.443Z,100112.16
2022-10-23T14:03:03.627Z,100117.16
2022-10-23T14:05:51.411Z,100104.97
2022-10-23T14:08:39.336Z,100091.69
2022-10-23T14:11:27.919Z,100071.75
2022-10-23T14:14:16.577Z,100064.06
2022-10-23T14:17:03.852Z,100082.34
2022-10-23T14:19:51.450Z,100076.59
2022-10-23T14:22:38.775Z,100066.91
2022-10-23T14:25:26.327Z,100061.22
2022-10-23T14:28:13.698Z,100062.44
2022-10-23T14:31:06.584Z,100058.56
2022-10-23T14:33:56.118Z,100063.09
2022-10-23T14:36:50.243Z,100056.41
2022-10-23T14:39:38.447Z,100045.38
2022-10-23T14:42:29.367Z,100041.59
2022-10-23T14:45:19.823Z,100029.03
2022-10-23T14:48:08.707Z,100044.88
2022-10-23T14:50:56.319Z,100028.00
2022-10-23T14:53:44.198Z,100026.94
2022-10-23T14:56:34.242Z,100031.25
2022-10-23T14:59:21.988Z,100029.59
2022-10-23T15:02:11.722Z,100028.50
2022-10-23T15:05:00.959Z,100028.66
2022-10-23T15:07:48.586Z,100013.81
2022-10-23T15:10:39.158Z,100006.47
2022-10-23T15:13:27.134Z,99995.44
2022-10-23T15:16:15.016Z,99989.16
2022-10-23T15:19:02.641Z,99989.59
2022-10-23T15:21:52.493Z,99983.75
2022-10-23T15:24:40.243Z,99996.69
2022-10-23T15:27:27.883Z,99992.66
2022-10-23T15:30:15.450Z,99995.28
2022-10-23T15:33:02.998Z,100001.63
2022-10-23T15:35:51.677Z,100002.44
2022-10-23T15:38:40.542Z,99987.72
2022-10-23T15:41:29.943Z,99987.03
2022-10-23T15:44:20.142Z,99984.56
2022-10-23T15:47:07.479Z,99978.13
2022-10-23T15:49:54.527Z,99966.00
2022-10-23T15:52:42.332Z,99975.03
2022-10-23T15:55:31.690Z,99978.00
2022-10-23T15:58:19.612Z,99978.00
2022-10-23T16:01:07.593Z,99976.50
2022-10-23T16:03:54.979Z,99960.41
2022-10-23T16:06:42.220Z,99936.84
2022-10-23T16:09:31.027Z,99925.34
2022-10-23T16:12:19.684Z,99925.72
2022-10-23T16:15:09.606Z,99928.03
2022-10-23T16:17:57.906Z,99934.03
2022-10-23T16:20:45.674Z,99929.50
2022-10-23T16:23:33.630Z,99920.19
2022-10-23T16:26:22.471Z,99921.34
2022-10-23T16:29:12.938Z,99933.34
2022-10-23T16:32:00.455Z,99924.69
2022-10-23T16:34:47.651Z,99920.84
2022-10-23T16:37:35.588Z,99919.31
2022-10-23T16:40:28.888Z,99912.88
2022-10-23T16:43:35.635Z,99912.13
2022-10-23T16:46:44.569Z,99912.38
2022-10-23T16:49:32.365Z,99920.63
2022-10-23T16:52:19.969Z,99941.81
2022-10-23T16:55:08.635Z,99966.56
2022-10-23T16:57:57.662Z,99991.53
2022-10-23T17:00:45.536Z,100008.47
2022-10-23T17:03:37.489Z,100035.34
2022-10-23T17:06:27.146Z,100045.88
2022-10-23T17:09:17.233Z,100045.16
2022-10-23T17:12:05.158Z,100053.28
2022-10-23T17:14:52.600Z,100039.94
2022-10-23T17:17:40.051Z,100037.00
2022-10-23T17:20:28.815Z,100041.47
2022-10-23T17:23:16.388Z,100050.56
2022-10-23T17:26:05.117Z,100041.81
2022-10-23T17:28:52.915Z,100035.34
2022-10-23T17:31:43.568Z,100033.31
2022-10-23T17:34:30.644Z,100041.19
2022-10-23T17:37:19.808Z,100049.22
2022-10-23T17:40:08.246Z,100052.19
2022-10-23T17:42:55.707Z,100047.66
2022-10-23T17:45:45.267Z,100040.25
2022-10-23T17:48:33.580Z,100043.13
2022-10-23T17:51:23.737Z,100049.81
2022-10-23T17:54:14.587Z,100053.13
2022-10-23T17:57:01.972Z,100068.06
2022-10-23T17:59:49.566Z,100072.97
2022-10-23T18:02:37.231Z,100071.19
2022-10-23T18:05:24.710Z,100053.84
2022-10-23T18:08:12.223Z,100061.97
2022-10-23T18:11:01.223Z,100061.59
2022-10-23T18:13:48.980Z,100076.56
2022-10-23T18:16:38.237Z,100076.66
2022-10-23T18:19:25.528Z,100083.25
2022-10-23T18:22:13.425Z,100078.84
2022-10-23T18:25:01.347Z,100090.88
2022-10-23T18:27:49.776Z,100102.09
2022-10-23T18:33:27.226Z,100137.25
2022-10-23T18:36:16.630Z,100143.47
2022-10-23T18:39:05.701Z,100146.06
2022-10-23T18:41:55.891Z,100150.78
2022-10-23T18:44:50.029Z,100144.09
2022-10-23T18:47:37.417Z,100141.84
2022-10-23T18:50:24.738Z,100125.94
2022-10-23T18:53:12.508Z,100126.63
2022-10-23T18:56:00.717Z,100110.88
2022-10-23T18:58:48.139Z,100118.78
2022-10-23T19:01:37.763Z,100117.06
2022-10-23T19:04:25.665Z,100105.63
2022-10-23T19:07:12.998Z,100091.75
2022-10-23T19:10:00.096Z,100041.91
2022-10-23T19:12:47.706Z,100025.19
2022-10-23T19:15:35.860Z,100020.16
2022-10-23T19:18:24.375Z,99978.56
2022-10-23T19:21:12.871Z,99942.88
2022-10-23T19:24:03.143Z,99964.28
2022-10-23T19:26:51.344Z,99962.56
2022-10-23T19:29:41.462Z,99895.75
2022-10-23T19:32:28.617Z,99891.56
2022-10-23T19:35:20.267Z,99931.41
2022-10-23T19:38:07.752Z,99970.44
2022-10-23T19:40:55.181Z,99970.66
2022-10-23T19:43:43.079Z,99938.59
2022-10-23T19:46:30.800Z,99944.81
2022-10-23T19:49:19.086Z,99917.47
2022-10-23T19:52:07.783Z,99923.78
2022-10-23T19:54:55.927Z,99941.47
2022-10-23T19:57:44.049Z,99919.88
2022-10-23T20:00:31.754Z,99932.66
2022-10-23T20:03:19.734Z,99923.19
2022-10-23T20:06:10.340Z,99920.94
2022-10-23T20:08:59.387Z,99917.97
2022-10-23T20:11:49.338Z,99912.22
2022-10-23T20:14:36.761Z,99911.16
2022-10-23T20:17:24.435Z,99915.91
2022-10-23T20:20:11.717Z,99933.94
2022-10-23T20:22:59.963Z,99929.16
2022-10-23T20:25:48.992Z,99931.66
2022-10-23T20:28:37.625Z,99929.75
2022-10-23T20:31:26.814Z,99931.41
2022-10-23T20:34:14.538Z,99953.69
2022-10-23T20:37:01.673Z,99944.06
2022-10-23T20:39:49.076Z,99945.38
2022-10-23T20:42:38.144Z,99935.72
2022-10-23T20:45:25.571Z,99929.75
2022-10-23T20:48:12.518Z,99931.81
2022-10-23T20:51:03.755Z,99918.34
2022-10-23T20:53:53.214Z,99924.56
2022-10-23T20:56:41.078Z,99918.19
2022-10-23T20:59:30.404Z,99922.38
2022-10-23T21:02:18.238Z,99910.75
2022-10-23T21:05:06.433Z,99910.91
2022-10-23T21:07:54.084Z,99914.00
2022-10-23T21:10:47.295Z,99906.75
2022-10-23T21:13:35.205Z,99910.91
2022-10-23T21:16:28.434Z,99909.47
2022-10-23T21:19:17.038Z,99898.63
2022-10-23T21:22:04.286Z,99896.25
2022-10-23T21:24:52.161Z,99896.72
2022-10-23T21:27:39.938Z,99903.72
2022-10-23T21:30:27.254Z,99915.13
2022-10-23T21:33:16.086Z,99898.69
2022-10-23T21:36:19.003Z,99905.38
2022-10-23T21:39:06.890Z,99909.19
2022-10-23T21:41:54.068Z,99928.13
2022-10-23T21:44:41.785Z,99933.50
2022-10-23T21:47:31.286Z,99934.50
2022-10-23T21:50:23.395Z,99941.34
2022-10-23T21:53:11.096Z,99945.56
2022-10-23T21:56:04.591Z,99958.09
2022-10-23T21:58:51.959Z,99970.22
2022-10-23T22:01:39.962Z,99975.84
2022-10-23T22:04:27.698Z,99979.56
2022-10-23T22:07:17.207Z,99996.00
2022-10-23T22:10:05.527Z,99993.94
2022-10-23T22:12:53.060Z,99998.41
2022-10-23T22:15:39.912Z,100006.72
2022-10-23T22:18:27.612Z,100021.25
2022-10-23T22:21:16.896Z,100016.28
2022-10-23T22:24:06.024Z,100016.97
2022-10-23T22:26:55.408Z,100012.31
2022-10-23T22:29:42.958Z,100015.09
2022-10-23T22:32:30.276Z,100005.59
2022-10-23T22:35:17.549Z,100014.00
2022-10-23T22:38:05.048Z,100008.78
2022-10-23T22:40:53.845Z,100017.69
2022-10-23T22:43:41.097Z,100020.38
2022-10-23T22:46:30.538Z,100006.13
2022-10-23T22:49:18.271Z,100010.47
2022-10-23T22:52:05.875Z,100006.06
2022-10-23T22:54:52.963Z,100004.16
2022-10-23T22:57:41.860Z,99997.81
2022-10-23T23:00:29.498Z,99995.59
2022-10-23T23:03:17.127Z,100005.00
2022-10-23T23:06:05.482Z,100003.44
2022-10-23T23:08:53.496Z,100008.25
2022-10-23T23:11:51.203Z,100005.84
2022-10-23T23:14:42.388Z,100003.66
2022-10-23T23:17:29.875Z,99990.78
2022-10-23T23:20:17.529Z,99990.34
2022-10-23T23:23:04.823Z,100004.03
2022-10-23T23:25:52.284Z,99995.47
2022-10-23T23:28:39.507Z,99993.50
2022-10-23T23:31:28.112Z,99978.53
2022-10-23T23:34:15.724Z,99987.34
2022-10-23T23:37:03.054Z,99987.81
2022-10-23T23:39:50.659Z,99983.69
2022-10-23T23:42:38.190Z,99984.53
2022-10-23T23:45:25.845Z,99984.41
2022-10-23T23:48:14.568Z,99984.69
2022-10-23T23:51:02.124Z,99985.69
2022-10-23T23:53:50.598Z,99983.50
2022-10-23T23:56:38.100Z,99975.66
2022-10-23T23:59:25.501Z,99969.41
